»·PEaware :: N175FW KSBP-KSMO

N175FW :: KSBP-KSMO

FLIGHT INFORMATION

Flight Status: Arrived
Operator: Privately registered:
United States
More flights under this callsign
Pilot: Frank W. (16848)
Aircraft: CESSNA 172 SKYHAWK
(C172)
More flights by this aircraft type
Origin: KSBP San Luis Co Regl
United States
Destination: KSMO Santa Monica Mun
United States
More flights between these airports :: More routes between these airports
Route: SMX SBA OXR
File this flight plan on PilotEdge
Remarks:
Altitude:
(Current/Filed)
4,500ft
Speed:
(Current/Filed)
110kts
Departed: 05-May-18 04:15 PM
Arrived: 05-May-18 05:34 PM
Distance/Time
Traveled:
131nm/1:19
Distance/Time
To Go:
Arrived

Flight Plot

Page will automatically refresh every two minutes.

Flight plan parsing failed; only flown route is shown


Map Options




Map Legend


Flown Route
Filed Route
Departure Airport
Arrival Airport
Navaid (VOR, NDB)
Fix

Horizontal Profiles

Position Reports

Time Latitude Longitude Heading Altitude Ground
Speed
05-May-18 15:40 35.238383 -120.638363 176 184ft 0kts
05-May-18 15:41 35.238383 -120.638363 176 184ft 0kts
05-May-18 15:42 35.238383 -120.638363 176 184ft 0kts
05-May-18 15:43 35.238383 -120.638363 176 184ft 0kts
05-May-18 15:44 35.238383 -120.638363 176 184ft 0kts
05-May-18 15:45 35.238383 -120.638363 176 184ft 0kts
05-May-18 15:46 35.238383 -120.638363 176 184ft 0kts
05-May-18 15:47 35.238383 -120.638363 176 184ft 0kts
05-May-18 15:48 35.238383 -120.638363 176 184ft 0kts
05-May-18 15:49 35.238383 -120.638363 176 184ft 0kts
05-May-18 15:50 35.238383 -120.638363 176 184ft 0kts
05-May-18 15:51 35.238383 -120.638363 176 184ft 0kts
05-May-18 15:52 35.238383 -120.638363 176 184ft 0kts
05-May-18 15:53 35.238383 -120.638363 176 184ft 0kts
05-May-18 15:54 35.238383 -120.638363 176 184ft 0kts
05-May-18 15:55 35.238383 -120.638363 176 184ft 0kts
05-May-18 15:56 35.238383 -120.638363 176 184ft 0kts
05-May-18 15:58 35.238383 -120.638363 176 184ft 0kts
05-May-18 15:59 35.238383 -120.638363 176 184ft 0kts
05-May-18 16:00 35.238383 -120.638363 176 184ft 0kts
05-May-18 16:01 35.238383 -120.638363 176 184ft 0kts
05-May-18 16:02 35.238383 -120.638363 176 184ft 0kts
05-May-18 16:03 35.238383 -120.638363 176 184ft 0kts
05-May-18 16:04 35.238383 -120.638363 176 184ft 0kts
05-May-18 16:05 35.238383 -120.638363 176 184ft 0kts
05-May-18 16:06 35.237571 -120.638518 195 184ft 12kts
05-May-18 16:07 35.234496 -120.634092 124 184ft 25kts
05-May-18 16:08 35.233157 -120.632182 276 184ft 0kts
05-May-18 16:09 35.233157 -120.632182 276 184ft 0kts
05-May-18 16:10 35.233186 -120.632274 295 184ft 3kts
05-May-18 16:11 35.233188 -120.632427 230 184ft 0kts
05-May-18 16:12 35.233188 -120.632427 230 184ft 0kts
05-May-18 16:13 35.233188 -120.632427 230 184ft 0kts
05-May-18 16:14 35.232821 -120.633067 296 184ft 0kts
05-May-18 16:15 35.239159 -120.643337 311 417ft 73kts
05-May-18 16:16 35.234441 -120.659880 193 1216ft 89kts
05-May-18 16:17 35.211270 -120.639815 148 1796ft 105kts
05-May-18 16:18 35.189126 -120.620925 151 2539ft 100kts
05-May-18 16:19 35.166782 -120.603512 148 3280ft 93kts
05-May-18 16:20 35.145603 -120.585738 156 3962ft 90kts
05-May-18 16:21 35.125605 -120.573416 164 4731ft 70kts
05-May-18 16:22 35.112571 -120.556706 161 5112ft 94kts
05-May-18 16:23 35.081341 -120.553270 168 4680ft 126kts
05-May-18 16:24 35.057290 -120.541939 167 5457ft 73kts
05-May-18 16:25 35.038878 -120.532998 168 5919ft 75kts
05-May-18 16:26 35.016235 -120.523193 168 6275ft 94kts
05-May-18 16:27 34.990280 -120.512801 168 6523ft 109kts
05-May-18 16:28 34.959755 -120.500836 156 6509ft 121kts
05-May-18 16:29 34.932833 -120.477096 158 6515ft 117kts
05-May-18 16:30 34.903348 -120.460622 160 6515ft 117kts
05-May-18 16:31 34.880238 -120.432999 136 6516ft 120kts
05-May-18 16:32 34.857556 -120.403325 136 6514ft 119kts
05-May-18 16:33 34.835032 -120.373832 136 6511ft 119kts
05-May-18 16:34 34.812807 -120.344765 137 6504ft 118kts
05-May-18 16:35 34.790528 -120.315603 137 6498ft 118kts
05-May-18 16:36 34.766653 -120.288871 143 6498ft 116kts
05-May-18 16:37 34.745011 -120.259768 130 6480ft 120kts
05-May-18 16:38 34.724035 -120.229020 136 6471ft 117kts
05-May-18 16:39 34.702056 -120.200072 137 6469ft 116kts
05-May-18 16:40 34.679980 -120.171303 137 6469ft 116kts
05-May-18 16:41 34.657897 -120.142561 137 6486ft 115kts
05-May-18 16:42 34.634923 -120.112700 137 6185ft 123kts
05-May-18 16:43 34.611462 -120.082226 137 5887ft 124kts
05-May-18 16:44 34.587638 -120.051315 137 5591ft 126kts
05-May-18 16:45 34.563279 -120.019979 137 5292ft 127kts
05-May-18 16:46 34.538833 -119.988839 137 4993ft 127kts
05-May-18 16:47 34.514590 -119.957620 136 4689ft 127kts
05-May-18 16:48 34.490613 -119.926663 136 4479ft 122kts
05-May-18 16:49 34.467821 -119.897223 136 4478ft 118kts
05-May-18 16:50 34.445322 -119.868208 136 4477ft 117kts
05-May-18 16:51 34.424474 -119.838054 116 4481ft 119kts
05-May-18 16:52 34.410980 -119.801228 116 4475ft 119kts
05-May-18 16:53 34.397808 -119.764284 115 4474ft 119kts
05-May-18 16:54 34.384734 -119.727406 115 4474ft 119kts
05-May-18 16:55 34.371628 -119.690390 116 4474ft 119kts
05-May-18 16:56 34.358537 -119.653423 116 4474ft 119kts
05-May-18 16:57 34.345360 -119.616259 116 4475ft 120kts
05-May-18 16:58 34.332126 -119.578973 116 4475ft 121kts
05-May-18 16:59 34.318840 -119.541579 116 4475ft 121kts
05-May-18 17:00 34.305403 -119.503816 116 4475ft 122kts
05-May-18 17:01 34.291847 -119.465775 117 4475ft 123kts
05-May-18 17:02 34.278195 -119.427524 117 4475ft 124kts
05-May-18 17:03 34.264476 -119.389099 117 4476ft 125kts
05-May-18 17:04 34.250648 -119.350438 117 4466ft 125kts
05-May-18 17:05 34.238853 -119.317464 117 4464ft 124kts
05-May-18 17:06 34.225104 -119.279080 117 4464ft 124kts
05-May-18 17:07 34.211303 -119.240701 117 4464ft 124kts
05-May-18 17:08 34.198316 -119.202076 112 4463ft 125kts
05-May-18 17:09 34.188455 -119.161791 109 4466ft 124kts
05-May-18 17:10 34.178700 -119.121728 109 4467ft 124kts
05-May-18 17:11 34.170549 -119.088085 110 4459ft 87kts
05-May-18 17:12 34.164361 -119.062568 109 4462ft 71kts
05-May-18 17:13 34.158087 -119.036890 109 4479ft 95kts
05-May-18 17:14 34.150111 -119.002746 107 4474ft 113kts
05-May-18 17:15 34.141588 -118.966066 108 4526ft 116kts
05-May-18 17:16 34.132367 -118.928133 108 4527ft 118kts
05-May-18 17:17 34.123058 -118.890010 108 4526ft 118kts
05-May-18 17:18 34.113754 -118.851954 108 4527ft 118kts
05-May-18 17:19 34.104464 -118.814050 108 4528ft 118kts
05-May-18 17:20 34.095156 -118.776001 108 4525ft 118kts
05-May-18 17:21 34.085851 -118.738135 108 4518ft 117kts
05-May-18 17:22 34.076618 -118.700560 109 4511ft 116kts
05-May-18 17:23 34.067420 -118.663265 110 4502ft 115kts
05-May-18 17:24 34.058451 -118.626924 111 4488ft 106kts
05-May-18 17:24 34.048763 -118.601089 126 3929ft 99kts
05-May-18 17:26 34.043606 -118.567185 103 3513ft 92kts
05-May-18 17:27 34.046323 -118.538808 88 3184ft 97kts
05-May-18 17:28 34.048620 -118.511284 88 2677ft 102kts
05-May-18 17:29 34.050478 -118.486741 89 2325ft 95kts
05-May-18 17:30 34.050820 -118.465787 98 2100ft 97kts
05-May-18 17:30 34.046402 -118.450062 129 1849ft 82kts
05-May-18 17:31 34.035892 -118.436002 156 1339ft 74kts
05-May-18 17:32 34.023042 -118.442890 226 447ft 60kts
05-May-18 17:33 34.015556 -118.451641 244 136ft 12kts
05-May-18 17:34 34.013361 -118.454431 293 136ft 10kts
05-May-18 17:35 34.013597 -118.454865 321 136ft 0kts
05-May-18 17:36 34.014857 -118.453589 43 136ft 15kts
05-May-18 17:37 34.015980 -118.453048 314 136ft 0kts
05-May-18 17:38 34.015980 -118.453048 314 136ft 0kts
05-May-18 17:39 34.015980 -118.453048 314 136ft 0kts
05-May-18 17:40 34.015980 -118.453048 314 136ft 0kts
05-May-18 17:41 34.015980 -118.453048 314 136ft 0kts
05-May-18 17:42 34.015980 -118.453048 314 136ft 0kts
05-May-18 17:43 34.015980 -118.453048 314 136ft 0kts
05-May-18 17:44 34.015980 -118.453048 314 136ft 0kts
05-May-18 17:45 34.015980 -118.453048 314 136ft 0kts
05-May-18 17:46 34.015980 -118.453048 314 136ft 0kts
05-May-18 17:47 34.015980 -118.453048 314 136ft 0kts

Navigation Log

Ident Type
Flight plan parsing failed, navigation log unavailable